Time;durP1;ratioP1;P1;durP2;ratioP2;P2;SDS_P1;SDS_P2;PMS_P1;PMS_P2;Temp;Humidity;BMP_temperature;BMP_pressure;BME280_temperature;BME280_humidity;BME280_pressure;Samples;Min_cycle;Max_cycle;Signal;HPM_P1;HPM_P2
2021/11/23 00:00:08;;;;;;;0.40;0.20;;;6.40;99.90;;;;;;5011112;28;20388;-70
2021/11/23 00:02:34;;;;;;;0.40;0.20;;;6.40;99.90;;;;;;4993595;28;20887;-70
2021/11/23 00:05:00;;;;;;;0.60;0.40;;;6.50;99.90;;;;;;4992292;28;20412;-70
2021/11/23 00:07:26;;;;;;;0.40;0.40;;;6.50;99.90;;;;;;5010752;28;20452;-70
2021/11/23 00:09:52;;;;;;;0.40;0.20;;;6.40;99.90;;;;;;5009970;28;20385;-70
2021/11/23 00:12:17;;;;;;;0.40;0.20;;;6.40;99.90;;;;;;5010786;28;20818;-70
2021/11/23 00:14:43;;;;;;;0.40;0.20;;;6.40;99.90;;;;;;5010542;28;20404;-70
2021/11/23 00:17:09;;;;;;;0.70;0.50;;;6.40;99.90;;;;;;5010201;28;20846;-70
2021/11/23 00:19:35;;;;;;;0.40;0.20;;;6.40;99.90;;;;;;5014558;28;20392;-70
2021/11/23 00:22:01;;;;;;;0.40;0.20;;;6.30;99.90;;;;;;5013638;28;20400;-71
2021/11/23 00:24:26;;;;;;;0.40;0.20;;;6.40;99.90;;;;;;5014122;28;20498;-70
2021/11/23 00:26:52;;;;;;;0.40;0.30;;;6.40;99.90;;;;;;5013955;28;20743;-70
2021/11/23 00:29:18;;;;;;;0.40;0.20;;;6.40;99.90;;;;;;5013558;28;20416;-70
2021/11/23 00:31:44;;;;;;;0.40;0.20;;;6.40;99.90;;;;;;5013980;28;20383;-69
2021/11/23 00:34:09;;;;;;;0.40;0.20;;;6.40;99.90;;;;;;5013121;28;20431;-71
2021/11/23 00:36:35;;;;;;;0.60;0.60;;;6.40;99.90;;;;;;5013853;28;20448;-70
2021/11/23 00:39:01;;;;;;;0.40;0.30;;;6.40;99.90;;;;;;5013619;28;20766;-70
2021/11/23 00:41:26;;;;;;;0.40;0.20;;;6.50;99.90;;;;;;5013179;28;20553;-70
2021/11/23 00:43:52;;;;;;;0.40;0.40;;;6.50;99.90;;;;;;5013893;28;20840;-70
2021/11/23 00:46:18;;;;;;;0.40;0.20;;;6.40;99.90;;;;;;5013122;28;20384;-70
2021/11/23 00:48:44;;;;;;;0.40;0.30;;;6.50;99.90;;;;;;5013581;28;20373;-70
2021/11/23 00:51:10;;;;;;;0.40;0.20;;;6.50;99.90;;;;;;5013359;28;20392;-70
2021/11/23 00:53:36;;;;;;;0.40;0.20;;;6.40;99.90;;;;;;5013117;28;20404;-69
2021/11/23 00:56:04;;;;;;;0.90;0.70;;;6.40;99.90;;;;;;5013586;28;20715;-70
2021/11/23 00:58:31;;;;;;;0.40;0.20;;;6.50;99.90;;;;;;5002055;28;20390;-70
2021/11/23 01:00:57;;;;;;;0.40;0.30;;;6.50;99.90;;;;;;4976424;28;20387;-70
2021/11/23 01:03:23;;;;;;;1.08;0.57;;;6.50;99.90;;;;;;4993697;28;20883;-70
2021/11/23 01:05:50;;;;;;;0.40;0.20;;;6.40;99.90;;;;;;4993202;28;20645;-70
2021/11/23 01:08:17;;;;;;;0.40;0.40;;;6.40;99.90;;;;;;4976301;28;20394;-69
2021/11/23 01:10:44;;;;;;;0.40;0.20;;;6.40;99.90;;;;;;4993079;28;20398;-70
2021/11/23 01:13:10;;;;;;;0.40;0.30;;;6.30;99.90;;;;;;4993796;28;20390;-70
2021/11/23 01:15:36;;;;;;;0.40;0.20;;;6.40;99.90;;;;;;4975878;28;20523;-70
2021/11/23 01:18:03;;;;;;;0.40;0.20;;;6.40;99.90;;;;;;4993652;28;20999;-69
2021/11/23 01:20:29;;;;;;;0.40;0.20;;;6.30;99.90;;;;;;4993821;28;20386;-70
2021/11/23 01:22:57;;;;;;;0.40;0.20;;;6.40;99.90;;;;;;4992940;28;20391;-70
2021/11/23 01:25:23;;;;;;;0.40;0.20;;;6.40;99.90;;;;;;4993857;28;20410;-70
2021/11/23 01:27:48;;;;;;;0.40;0.20;;;6.30;99.90;;;;;;4992664;28;20768;-70
2021/11/23 01:30:15;;;;;;;0.40;0.20;;;6.30;99.90;;;;;;4992281;28;20819;-70
2021/11/23 01:32:41;;;;;;;0.40;0.20;;;6.30;99.90;;;;;;4993027;28;20543;-69
2021/11/23 01:35:08;;;;;;;0.40;0.20;;;6.30;99.90;;;;;;4992748;28;20391;-70
2021/11/23 01:37:34;;;;;;;0.40;0.20;;;6.30;99.90;;;;;;4993563;28;20453;-70
2021/11/23 01:40:00;;;;;;;0.40;0.20;;;6.30;99.90;;;;;;4992592;28;20485;-70
2021/11/23 01:42:26;;;;;;;0.40;0.20;;;6.30;99.90;;;;;;4993179;28;20890;-70
2021/11/23 01:44:52;;;;;;;0.40;0.30;;;6.30;99.90;;;;;;4993141;28;20414;-70
2021/11/23 01:47:18;;;;;;;0.40;0.20;;;6.30;99.90;;;;;;4992497;28;20918;-71
2021/11/23 01:49:44;;;;;;;0.40;0.20;;;6.30;99.90;;;;;;4992883;28;20424;-70
2021/11/23 01:52:10;;;;;;;0.40;0.20;;;6.30;99.90;;;;;;4992144;28;20756;-71
2021/11/23 01:54:36;;;;;;;0.40;0.20;;;6.30;99.90;;;;;;4992806;28;20387;-70
2021/11/23 01:57:02;;;;;;;0.40;0.20;;;6.20;99.90;;;;;;4993083;28;20800;-71
2021/11/23 01:59:28;;;;;;;0.40;0.20;;;6.30;99.90;;;;;;4992062;28;20390;-70
2021/11/23 02:01:54;;;;;;;0.40;0.20;;;6.20;99.90;;;;;;4992927;28;20878;-71
2021/11/23 02:04:20;;;;;;;0.40;0.20;;;6.20;99.90;;;;;;4992146;28;20411;-70
2021/11/23 02:06:46;;;;;;;0.40;0.20;;;6.20;99.90;;;;;;4975300;28;20402;-70
2021/11/23 02:09:11;;;;;;;0.40;0.30;;;6.20;99.90;;;;;;4992708;28;20748;-69
2021/11/23 02:11:38;;;;;;;0.40;0.20;;;6.20;99.90;;;;;;4992000;28;20411;-69
2021/11/23 02:14:07;;;;;;;0.40;0.20;;;6.20;99.90;;;;;;4975428;28;20732;-70
2021/11/23 02:16:33;;;;;;;0.40;0.30;;;6.20;99.90;;;;;;4991869;28;20477;-71
2021/11/23 02:19:00;;;;;;;0.40;0.20;;;6.20;99.90;;;;;;4992646;28;20755;-69
2021/11/23 02:21:26;;;;;;;0.40;0.20;;;6.20;99.90;;;;;;4991994;28;20410;-70
2021/11/23 02:23:52;;;;;;;0.40;0.20;;;6.10;99.90;;;;;;4992040;28;20394;-69
2021/11/23 02:26:18;;;;;;;0.40;0.20;;;6.10;99.90;;;;;;4992036;28;20422;-70
2021/11/23 02:28:43;;;;;;;0.40;0.20;;;6.10;99.90;;;;;;4991606;28;20386;-70
2021/11/23 02:31:10;;;;;;;0.40;0.20;;;6.10;99.90;;;;;;4975195;28;20422;-69
2021/11/23 02:33:37;;;;;;;0.40;0.20;;;6.10;99.90;;;;;;4992321;28;20477;-69
2021/11/23 02:36:05;;;;;;;0.40;0.20;;;6.00;99.90;;;;;;4992117;28;20437;-70
2021/11/23 02:38:33;;;;;;;0.40;0.30;;;6.10;99.90;;;;;;4992062;28;20382;-70
2021/11/23 02:41:00;;;;;;;0.40;0.20;;;6.00;99.90;;;;;;4991271;28;20437;-70
2021/11/23 02:43:26;;;;;;;0.40;0.20;;;5.90;99.90;;;;;;4992073;28;20418;-70
2021/11/23 02:45:53;;;;;;;0.40;0.20;;;6.00;99.90;;;;;;4991115;28;20804;-70
2021/11/23 02:48:19;;;;;;;0.40;0.20;;;5.90;99.90;;;;;;4991895;28;20393;-71
2021/11/23 02:50:59;;;;;;;0.40;0.20;;;5.90;99.90;;;;;;4991877;28;20811;-70
2021/11/23 02:53:25;;;;;;;0.40;0.20;;;5.80;99.90;;;;;;4991900;28;20397;-70
2021/11/23 02:55:51;;;;;;;0.40;0.20;;;5.70;99.90;;;;;;4991121;28;20383;-70
2021/11/23 02:58:17;;;;;;;0.40;0.20;;;5.70;99.90;;;;;;4982781;28;20837;-70
2021/11/23 03:00:44;;;;;;;0.40;0.20;;;5.70;99.90;;;;;;4972411;28;20385;-70
2021/11/23 03:03:10;;;;;;;0.40;0.20;;;5.70;99.90;;;;;;4954548;28;20392;-70
2021/11/23 03:05:36;;;;;;;0.40;0.20;;;5.60;99.90;;;;;;4972426;28;20424;-70
2021/11/23 03:08:02;;;;;;;0.40;0.20;;;5.60;99.90;;;;;;4971940;28;20447;-70
2021/11/23 03:10:30;;;;;;;0.40;0.20;;;5.60;99.90;;;;;;4955186;28;20416;-70
2021/11/23 03:12:57;;;;;;;0.40;0.20;;;5.60;99.90;;;;;;4971278;28;20911;-70
2021/11/23 03:15:25;;;;;;;0.40;0.30;;;5.60;99.90;;;;;;4954900;28;20427;-70
2021/11/23 03:17:51;;;;;;;0.40;0.20;;;5.50;99.90;;;;;;4971493;28;20396;-72
2021/11/23 03:20:19;;;;;;;0.40;0.20;;;5.60;99.90;;;;;;4972192;28;20404;-70
2021/11/23 03:22:45;;;;;;;0.40;0.20;;;5.50;99.90;;;;;;4972013;28;20384;-70
2021/11/23 03:25:12;;;;;;;0.40;0.20;;;5.40;99.90;;;;;;4971488;28;20483;-70
2021/11/23 03:27:37;;;;;;;0.40;0.20;;;5.40;99.90;;;;;;4971975;28;20399;-70
2021/11/23 03:30:06;;;;;;;0.40;0.20;;;5.40;99.90;;;;;;4971486;28;20389;-70
2021/11/23 03:32:32;;;;;;;0.40;0.40;;;5.40;99.90;;;;;;4971892;28;20391;-70
2021/11/23 03:34:58;;;;;;;0.40;0.30;;;5.30;99.90;;;;;;4971399;28;20862;-73
2021/11/23 03:37:26;;;;;;;0.40;0.20;;;5.30;99.90;;;;;;4954575;28;20404;-70
2021/11/23 03:39:54;;;;;;;0.40;0.40;;;5.30;99.90;;;;;;4971877;28;20392;-69
2021/11/23 03:42:20;;;;;;;0.40;0.20;;;5.20;99.90;;;;;;4971310;28;20655;-69
2021/11/23 03:44:46;;;;;;;0.40;0.20;;;5.10;99.90;;;;;;4971835;28;20416;-69
2021/11/23 03:47:14;;;;;;;0.40;0.20;;;5.00;99.90;;;;;;4971208;28;20392;-69
2021/11/23 03:49:46;;;;;;;0.40;0.30;;;4.80;99.90;;;;;;4979785;28;20546;-69
2021/11/23 03:52:13;;;;;;;0.40;0.30;;;4.80;99.90;;;;;;4990925;28;20397;-69
2021/11/23 03:54:39;;;;;;;0.40;0.20;;;4.80;99.90;;;;;;4977861;28;20469;-68
2021/11/23 03:57:05;;;;;;;0.50;0.40;;;4.70;99.90;;;;;;4994767;28;20442;-69
2021/11/23 03:59:31;;;;;;;1.20;0.70;;;4.70;99.90;;;;;;4996598;28;20396;-69
2021/11/23 04:01:57;;;;;;;0.40;0.20;;;4.70;99.90;;;;;;5014573;28;20753;-68
2021/11/23 04:04:22;;;;;;;0.40;0.20;;;4.60;99.90;;;;;;5013925;28;20404;-69
2021/11/23 04:06:48;;;;;;;0.40;0.20;;;4.60;99.90;;;;;;5014703;28;20380;-69
2021/11/23 04:09:14;;;;;;;0.40;0.20;;;4.70;99.90;;;;;;4996347;28;20404;-69
2021/11/23 04:11:40;;;;;;;0.40;0.20;;;4.70;99.90;;;;;;5014315;28;20385;-69
2021/11/23 04:14:06;;;;;;;0.70;0.70;;;4.70;99.90;;;;;;5014359;28;20389;-69
2021/11/23 04:16:31;;;;;;;0.40;0.30;;;4.70;99.90;;;;;;5014159;28;20684;-69
2021/11/23 04:18:57;;;;;;;1.00;0.90;;;4.70;99.90;;;;;;5014036;28;20865;-68
2021/11/23 04:21:23;;;;;;;0.40;0.20;;;4.70;99.90;;;;;;5013989;28;20761;-69
2021/11/23 04:23:49;;;;;;;0.40;0.20;;;4.70;99.90;;;;;;5013916;28;20389;-69
2021/11/23 04:26:15;;;;;;;0.40;0.20;;;4.70;99.90;;;;;;5014219;28;20434;-68
2021/11/23 04:28:42;;;;;;;0.50;0.40;;;4.70;99.90;;;;;;5013549;28;20476;-68
2021/11/23 04:31:07;;;;;;;0.40;0.20;;;4.70;99.90;;;;;;4996458;28;20397;-68
2021/11/23 04:33:34;;;;;;;0.40;0.20;;;4.70;99.90;;;;;;5013180;28;20746;-69
2021/11/23 04:36:02;;;;;;;0.40;0.40;;;4.80;99.90;;;;;;4996577;28;20397;-69
2021/11/23 04:38:27;;;;;;;0.40;0.20;;;4.80;99.90;;;;;;5013177;28;20858;-69
2021/11/23 04:40:53;;;;;;;0.40;0.20;;;4.90;99.90;;;;;;5013955;28;20397;-69
2021/11/23 04:43:19;;;;;;;0.40;0.20;;;4.90;99.90;;;;;;5013986;28;20392;-69
2021/11/23 04:45:45;;;;;;;0.40;0.20;;;5.00;99.90;;;;;;5013277;28;20850;-69
2021/11/23 04:48:11;;;;;;;0.40;0.30;;;4.50;99.90;;;;;;5013690;28;20385;-69
2021/11/23 04:50:36;;;;;;;0.40;0.20;;;4.00;99.90;;;;;;5013364;28;20436;-69
2021/11/23 04:53:03;;;;;;;0.40;0.20;;;3.80;99.90;;;;;;5013314;28;20392;-69
2021/11/23 04:55:30;;;;;;;0.40;0.20;;;3.50;99.90;;;;;;5013585;28;20385;-69
2021/11/23 04:57:56;;;;;;;1.60;0.90;;;3.60;99.90;;;;;;5006554;28;20386;-68
2021/11/23 05:00:22;;;;;;;0.40;0.20;;;3.50;99.90;;;;;;4993933;28;20397;-68
2021/11/23 05:02:47;;;;;;;0.40;0.25;;;3.50;99.90;;;;;;4993501;28;20389;-68
2021/11/23 05:05:14;;;;;;;0.40;0.20;;;3.30;99.90;;;;;;4993685;28;20411;-68
2021/11/23 05:07:42;;;;;;;0.40;0.30;;;3.40;99.90;;;;;;4994218;28;20404;-68
2021/11/23 05:10:10;;;;;;;0.40;0.30;;;3.20;99.90;;;;;;4993517;28;20747;-68
2021/11/23 05:12:35;;;;;;;0.40;0.20;;;3.00;99.90;;;;;;4994218;28;20394;-69
2021/11/23 05:15:03;;;;;;;0.40;0.20;;;3.10;99.90;;;;;;4993541;28;20910;-69
2021/11/23 05:17:29;;;;;;;0.40;0.20;;;3.00;99.90;;;;;;4994385;28;20383;-68
2021/11/23 05:19:54;;;;;;;0.40;0.20;;;2.80;99.90;;;;;;4975962;28;20394;-69
2021/11/23 05:22:20;;;;;;;0.40;0.20;;;2.80;99.90;;;;;;4993902;28;20398;-69
2021/11/23 05:24:46;;;;;;;0.40;0.20;;;2.70;99.90;;;;;;4993722;28;20411;-69
2021/11/23 05:27:12;;;;;;;0.40;0.30;;;2.40;99.90;;;;;;4993357;28;20390;-70
2021/11/23 05:29:40;;;;;;;0.40;0.20;;;2.30;99.90;;;;;;4993594;28;20390;-69
2021/11/23 05:32:06;;;;;;;0.50;0.40;;;2.20;99.90;;;;;;4992955;28;20386;-69
2021/11/23 05:34:31;;;;;;;0.40;0.30;;;2.30;99.90;;;;;;4993908;28;20391;-69
2021/11/23 05:36:57;;;;;;;0.40;0.40;;;2.30;99.90;;;;;;4993718;28;20844;-69
2021/11/23 05:39:23;;;;;;;0.82;0.77;;;2.30;99.90;;;;;;4993095;28;20441;-69
2021/11/23 05:41:50;;;;;;;0.50;0.50;;;2.20;99.90;;;;;;4993604;28;20386;-69
2021/11/23 05:44:16;;;;;;;0.40;0.20;;;2.00;99.90;;;;;;4992933;28;20481;-71
2021/11/23 05:46:42;;;;;;;0.40;0.20;;;1.90;99.90;;;;;;4993394;28;20390;-69
2021/11/23 05:49:08;;;;;;;0.40;0.20;;;2.00;99.90;;;;;;4971473;28;20416;-70
2021/11/23 05:51:34;;;;;;;0.40;0.30;;;1.90;99.90;;;;;;4973467;28;20483;-69
2021/11/23 05:54:00;;;;;;;0.60;0.50;;;1.80;99.90;;;;;;4973677;28;20404;-69
2021/11/23 05:56:26;;;;;;;0.40;0.20;;;1.90;99.90;;;;;;4973654;28;20418;-69
2021/11/23 05:58:51;;;;;;;0.40;0.20;;;2.00;99.90;;;;;;4973892;28;20479;-69
2021/11/23 06:01:17;;;;;;;0.40;0.20;;;1.90;99.90;;;;;;4973864;28;20399;-68
2021/11/23 06:03:43;;;;;;;1.10;0.90;;;1.90;99.90;;;;;;4973262;28;20412;-68
2021/11/23 06:06:11;;;;;;;0.40;0.30;;;1.80;99.90;;;;;;4973675;28;20420;-69
2021/11/23 06:08:37;;;;;;;0.40;0.20;;;1.90;99.90;;;;;;4973068;28;20397;-69
2021/11/23 06:11:03;;;;;;;0.40;0.20;;;1.80;99.90;;;;;;4973476;28;20531;-69
2021/11/23 06:13:29;;;;;;;0.40;0.20;;;1.80;99.90;;;;;;4973622;28;20475;-69
2021/11/23 06:15:55;;;;;;;0.40;0.20;;;1.80;99.90;;;;;;4972014;28;21100;-70
2021/11/23 06:18:20;;;;;;;0.40;0.20;;;1.60;99.90;;;;;;4943624;28;20410;-70
2021/11/23 06:20:48;;;;;;;0.40;0.20;;;1.50;99.90;;;;;;4976474;28;20392;-69
2021/11/23 06:23:19;;;;;;;0.40;0.20;;;1.70;99.90;;;;;;4970737;28;20396;-69
2021/11/23 06:25:46;;;;;;;0.40;0.20;;;1.50;99.90;;;;;;4981003;28;20422;-70
2021/11/23 06:28:13;;;;;;;0.40;0.20;;;1.70;99.90;;;;;;4974220;28;20904;-69
2021/11/23 06:30:40;;;;;;;0.40;0.20;;;1.70;99.90;;;;;;4986927;28;20893;-69
2021/11/23 06:33:06;;;;;;;0.40;0.20;;;1.60;99.90;;;;;;4954220;28;20585;-70
2021/11/23 06:35:32;;;;;;;0.40;0.40;;;1.60;99.90;;;;;;4967138;28;20399;-68
2021/11/23 06:37:57;;;;;;;0.40;0.40;;;1.60;99.90;;;;;;4976363;28;20443;-70
2021/11/23 06:40:23;;;;;;;0.40;0.20;;;1.50;99.90;;;;;;4974306;28;21599;-68
2021/11/23 06:42:49;;;;;;;0.50;0.40;;;1.60;99.90;;;;;;4985600;28;20402;-68
2021/11/23 06:45:14;;;;;;;0.40;0.20;;;1.50;99.90;;;;;;4964197;28;20422;-69
2021/11/23 06:47:41;;;;;;;0.40;0.20;;;1.60;99.90;;;;;;4978698;28;20403;-69
2021/11/23 06:50:08;;;;;;;0.40;0.20;;;1.60;99.90;;;;;;4976786;28;20409;-69
2021/11/23 06:52:34;;;;;;;0.40;0.20;;;1.70;99.90;;;;;;4974011;28;20873;-70
2021/11/23 06:55:00;;;;;;;0.40;0.20;;;1.70;99.90;;;;;;4977630;28;20466;-69
2021/11/23 06:57:25;;;;;;;0.63;0.40;;;1.50;99.90;;;;;;4975297;28;20922;-69
2021/11/23 06:59:51;;;;;;;0.40;0.20;;;1.40;99.90;;;;;;4986678;28;20408;-69
2021/11/23 07:02:17;;;;;;;2.50;0.60;;;1.30;99.90;;;;;;4982880;28;20549;-69
2021/11/23 07:04:42;;;;;;;0.40;0.20;;;1.10;99.90;;;;;;4973679;28;20440;-69
2021/11/23 07:07:11;;;;;;;0.40;0.28;;;1.10;99.90;;;;;;4988891;28;20393;-69
2021/11/23 07:09:37;;;;;;;0.40;0.20;;;1.30;99.90;;;;;;4958170;28;20780;-70
2021/11/23 07:12:04;;;;;;;0.40;0.30;;;1.30;99.90;;;;;;4973243;28;20406;-70
2021/11/23 07:14:30;;;;;;;0.40;0.20;;;1.30;99.90;;;;;;4987108;28;20393;-70
2021/11/23 07:16:56;;;;;;;0.40;0.20;;;1.10;99.90;;;;;;4973468;28;20392;-69
2021/11/23 07:19:21;;;;;;;0.40;0.30;;;1.00;99.90;;;;;;4961541;28;20503;-70
2021/11/23 07:21:47;;;;;;;0.40;0.20;;;1.00;99.90;;;;;;4973999;28;20404;-70
2021/11/23 07:24:13;;;;;;;0.40;0.20;;;1.00;99.90;;;;;;4974210;28;20383;-69
2021/11/23 07:26:39;;;;;;;0.40;0.20;;;1.00;99.90;;;;;;4974794;28;20392;-69
2021/11/23 07:29:06;;;;;;;0.60;0.50;;;1.00;99.90;;;;;;4974798;28;20800;-69
2021/11/23 07:31:31;;;;;;;0.40;0.20;;;0.90;99.90;;;;;;4974584;28;20392;-69
2021/11/23 07:33:58;;;;;;;0.40;0.20;;;0.90;99.90;;;;;;4966021;28;20384;-69
2021/11/23 07:36:25;;;;;;;0.40;0.20;;;0.90;99.90;;;;;;4972938;28;20796;-69
2021/11/23 07:38:53;;;;;;;0.40;0.20;;;1.00;99.90;;;;;;4952893;29;20398;-69
2021/11/23 07:41:19;;;;;;;0.40;0.20;;;1.10;99.90;;;;;;4951751;29;20393;-69
2021/11/23 07:43:45;;;;;;;0.40;0.20;;;1.20;99.90;;;;;;4952699;29;20433;-69
2021/11/23 07:46:11;;;;;;;0.40;0.20;;;1.10;99.90;;;;;;4951638;29;20425;-69
2021/11/23 07:48:37;;;;;;;0.40;0.20;;;1.20;99.90;;;;;;4953083;29;20394;-69
2021/11/23 07:51:04;;;;;;;0.60;0.60;;;1.30;99.90;;;;;;4971839;28;20440;-69
2021/11/23 07:53:30;;;;;;;0.40;0.20;;;1.30;99.90;;;;;;4970766;28;20389;-69
2021/11/23 07:55:56;;;;;;;0.40;0.20;;;1.20;99.90;;;;;;4971768;28;20419;-69
2021/11/23 07:58:22;;;;;;;0.40;0.30;;;1.20;99.90;;;;;;4990134;28;20442;-70
2021/11/23 08:00:48;;;;;;;0.40;0.20;;;1.10;99.90;;;;;;5010796;28;20834;-69
2021/11/23 08:03:13;;;;;;;0.70;0.60;;;1.00;99.90;;;;;;4993017;28;20391;-70
2021/11/23 08:05:39;;;;;;;0.40;0.20;;;0.90;99.90;;;;;;4988118;28;20975;-69
2021/11/23 08:08:07;;;;;;;0.40;0.20;;;1.20;99.90;;;;;;4987405;28;20406;-70
2021/11/23 08:10:33;;;;;;;0.40;0.20;;;1.30;99.90;;;;;;4984072;28;20416;-71
2021/11/23 08:12:59;;;;;;;0.40;0.20;;;1.00;99.90;;;;;;4983003;28;21142;-71
2021/11/23 08:15:25;;;;;;;0.40;0.20;;;1.10;99.90;;;;;;4966827;28;20661;-70
2021/11/23 08:17:51;;;;;;;0.45;0.43;;;1.20;99.90;;;;;;4967008;28;20909;-70
2021/11/23 08:20:18;;;;;;;0.40;0.20;;;1.20;99.90;;;;;;4988200;28;20823;-70
2021/11/23 08:22:45;;;;;;;0.40;0.25;;;1.20;99.90;;;;;;5005877;28;20484;-70
2021/11/23 08:25:12;;;;;;;1.00;0.90;;;1.20;99.90;;;;;;4997568;28;20446;-69
2021/11/23 08:27:39;;;;;;;0.90;0.60;;;1.20;99.90;;;;;;4989829;28;20413;-71
2021/11/23 08:30:08;;;;;;;0.40;0.20;;;1.20;99.90;;;;;;4972397;28;20395;-68
2021/11/23 08:32:34;;;;;;;0.40;0.20;;;1.20;99.90;;;;;;4973579;28;20390;-68
2021/11/23 08:35:00;;;;;;;0.50;0.30;;;1.30;99.90;;;;;;4990581;28;20387;-68
2021/11/23 08:37:27;;;;;;;0.40;0.20;;;1.40;99.90;;;;;;4990631;28;20391;-68
2021/11/23 08:39:57;;;;;;;0.40;0.20;;;1.40;99.90;;;;;;4993275;28;20394;-68
2021/11/23 08:42:24;;;;;;;0.40;0.20;;;1.30;99.90;;;;;;4994896;28;20383;-68
2021/11/23 08:44:52;;;;;;;0.40;0.40;;;1.30;99.90;;;;;;4994591;28;20413;-68
2021/11/23 08:47:18;;;;;;;0.40;0.20;;;1.50;99.90;;;;;;4994556;28;20386;-68
2021/11/23 08:49:44;;;;;;;0.40;0.20;;;1.60;99.90;;;;;;4985187;28;20420;-68
2021/11/23 08:52:12;;;;;;;0.40;0.40;;;1.50;99.90;;;;;;4973914;28;20877;-68
2021/11/23 08:54:38;;;;;;;0.40;0.20;;;1.70;99.90;;;;;;4975068;28;20400;-68
2021/11/23 08:57:07;;;;;;;1.80;0.80;;;1.60;99.90;;;;;;4974147;28;20391;-70
2021/11/23 08:59:40;;;;;;;0.40;0.20;;;1.60;99.90;;;;;;4993551;28;20426;-68
2021/11/23 09:02:06;;;;;;;0.40;0.30;;;1.80;99.90;;;;;;4994423;28;20473;-68
2021/11/23 09:04:36;;;;;;;1.40;1.30;;;1.80;99.90;;;;;;4994262;28;20414;-68
2021/11/23 09:07:06;;;;;;;0.40;0.30;;;1.70;99.90;;;;;;4994174;28;20419;-69
2021/11/23 09:09:32;;;;;;;0.50;0.50;;;1.80;99.90;;;;;;4976252;28;20733;-68
2021/11/23 09:12:02;;;;;;;0.40;0.20;;;1.80;99.90;;;;;;4994084;28;20379;-69
2021/11/23 09:14:33;;;;;;;0.40;0.20;;;1.90;99.90;;;;;;4993483;28;20851;-68
2021/11/23 09:16:58;;;;;;;0.40;0.20;;;1.90;99.90;;;;;;4994198;28;20390;-68
2021/11/23 09:19:25;;;;;;;0.40;0.20;;;1.80;99.90;;;;;;4993207;28;20386;-69
2021/11/23 09:21:51;;;;;;;0.40;0.20;;;2.00;99.90;;;;;;4993984;28;20390;-68
2021/11/23 09:24:18;;;;;;;0.60;0.50;;;2.20;99.90;;;;;;4993521;28;20945;-68
2021/11/23 09:26:46;;;;;;;0.40;0.20;;;2.40;99.90;;;;;;4993308;28;20387;-69
2021/11/23 09:29:13;;;;;;;0.43;0.43;;;2.30;99.90;;;;;;4993933;28;20387;-69
2021/11/23 09:31:40;;;;;;;0.50;0.50;;;2.40;99.90;;;;;;4992833;28;20890;-70
2021/11/23 09:34:06;;;;;;;0.40;0.20;;;2.50;99.90;;;;;;4976661;28;20441;-69
2021/11/23 09:36:32;;;;;;;0.60;0.50;;;2.50;99.90;;;;;;4993452;28;20382;-69
2021/11/23 09:38:59;;;;;;;0.40;0.20;;;2.70;99.90;;;;;;4993249;28;20832;-69
2021/11/23 09:41:25;;;;;;;0.40;0.20;;;2.80;99.90;;;;;;4993603;28;20393;-69
2021/11/23 09:43:51;;;;;;;0.40;0.20;;;2.90;99.90;;;;;;4993132;28;20542;-70
2021/11/23 09:46:17;;;;;;;0.40;0.30;;;3.00;99.90;;;;;;4993675;28;20497;-69
2021/11/23 09:48:47;;;;;;;0.40;0.20;;;3.10;99.90;;;;;;4993217;28;20396;-69
2021/11/23 09:51:27;;;;;;;0.60;0.60;;;3.20;99.90;;;;;;4992975;28;20406;-68
2021/11/23 09:53:54;;;;;;;0.40;0.20;;;3.20;99.90;;;;;;4992790;28;20439;-70
2021/11/23 09:56:20;;;;;;;0.40;0.20;;;3.30;99.90;;;;;;4993372;28;20559;-69
2021/11/23 09:58:53;;;;;;;0.40;0.20;;;3.40;99.90;;;;;;4980493;28;20738;-69
2021/11/23 10:01:19;;;;;;;0.40;0.20;;;3.60;99.90;;;;;;4973043;28;20877;-69
2021/11/23 10:03:45;;;;;;;0.47;0.40;;;3.60;99.90;;;;;;4956787;28;20475;-68
2021/11/23 10:06:15;;;;;;;0.40;0.28;;;3.70;99.90;;;;;;4973139;28;20416;-69
2021/11/23 10:08:43;;;;;;;0.40;0.20;;;3.80;99.90;;;;;;4973429;28;20404;-69
2021/11/23 10:11:24;;;;;;;1.40;0.70;;;3.90;99.90;;;;;;4973333;28;20876;-69
2021/11/23 10:13:53;;;;;;;0.40;0.20;;;3.80;99.90;;;;;;4973447;28;20424;-69
2021/11/23 10:16:20;;;;;;;0.40;0.20;;;4.00;99.90;;;;;;4972954;28;20793;-69
2021/11/23 10:18:50;;;;;;;0.40;0.20;;;4.10;99.90;;;;;;4973414;28;20443;-69
2021/11/23 10:21:18;;;;;;;0.40;0.20;;;4.20;99.90;;;;;;4973023;28;20801;-69
2021/11/23 10:23:52;;;;;;;0.70;0.37;;;4.40;99.90;;;;;;4973000;28;20900;-69
2021/11/23 10:26:20;;;;;;;0.40;0.20;;;4.50;99.90;;;;;;4973168;28;20444;-69
2021/11/23 10:28:58;;;;;;;0.40;0.20;;;4.50;99.90;;;;;;4973190;28;20741;-69
2021/11/23 10:31:30;;;;;;;1.40;1.20;;;4.50;99.90;;;;;;4972763;28;20463;-70
2021/11/23 10:34:05;;;;;;;0.40;0.20;;;4.60;99.90;;;;;;4973254;28;20791;-69
2021/11/23 10:36:34;;;;;;;0.40;0.20;;;4.70;99.90;;;;;;4972514;28;20400;-69
2021/11/23 10:39:17;;;;;;;0.40;0.40;;;4.80;99.90;;;;;;4973057;28;20388;-69
2021/11/23 10:41:49;;;;;;;0.40;0.30;;;5.10;99.90;;;;;;4972457;28;20384;-69
2021/11/23 10:44:27;;;;;;;1.00;0.80;;;5.20;99.90;;;;;;4955610;28;20396;-69
2021/11/23 10:46:57;;;;;;;0.40;0.20;;;5.50;99.90;;;;;;4972040;28;20404;-69
2021/11/23 10:49:46;;;;;;;0.40;0.20;;;5.70;99.90;;;;;;4978775;28;20426;-68
2021/11/23 10:52:28;;;;;;;1.60;1.10;;;6.00;99.90;;;;;;4992234;28;20433;-69
2021/11/23 10:54:55;;;;;;;0.63;0.25;;;5.90;99.90;;;;;;4991687;28;20390;-69
2021/11/23 10:57:22;;;;;;;0.40;0.20;;;6.10;99.90;;;;;;4993517;28;20398;-68
2021/11/23 10:59:48;;;;;;;0.40;0.20;;;6.60;99.90;;;;;;5011280;28;20446;-68
2021/11/23 11:02:14;;;;;;;0.40;0.20;;;6.40;99.90;;;;;;4993890;28;20858;-68
2021/11/23 11:04:43;;;;;;;0.40;0.20;;;6.60;99.90;;;;;;5011596;28;20475;-68
2021/11/23 11:07:10;;;;;;;0.40;0.20;;;7.20;99.90;;;;;;5010989;28;20976;-69
2021/11/23 11:09:38;;;;;;;0.40;0.20;;;7.60;99.90;;;;;;4993950;28;20401;-69
2021/11/23 11:12:04;;;;;;;0.40;0.20;;;8.20;99.70;;;;;;5011139;28;20718;-68
2021/11/23 11:14:35;;;;;;;0.40;0.20;;;8.90;96.00;;;;;;5011531;28;20417;-68
2021/11/23 11:17:07;;;;;;;0.80;0.70;;;8.60;96.20;;;;;;4994306;28;20389;-69
2021/11/23 11:19:47;;;;;;;0.40;0.20;;;9.40;94.30;;;;;;5011630;28;20401;-68
2021/11/23 11:22:24;;;;;;;0.40;0.20;;;9.30;93.80;;;;;;5010491;28;20450;-69
2021/11/23 11:25:13;;;;;;;0.40;0.20;;;10.10;92.10;;;;;;5011437;28;20409;-69
2021/11/23 11:27:44;;;;;;;0.40;0.30;;;9.60;91.90;;;;;;5011378;28;20392;-69
2021/11/23 11:30:32;;;;;;;0.40;0.20;;;10.20;91.00;;;;;;5010621;28;20472;-68
2021/11/23 11:33:05;;;;;;;0.40;0.30;;;10.70;89.80;;;;;;5011229;28;20865;-68
2021/11/23 11:35:49;;;;;;;0.40;0.20;;;9.70;91.20;;;;;;5010915;28;20380;-68
2021/11/23 11:38:31;;;;;;;0.40;0.30;;;10.00;89.80;;;;;;4993104;28;20462;-68
2021/11/23 11:41:02;;;;;;;0.40;0.20;;;10.20;89.60;;;;;;5011257;28;20384;-67
2021/11/23 11:43:38;;;;;;;0.40;0.20;;;10.50;88.50;;;;;;5010400;28;20796;-68
2021/11/23 11:46:05;;;;;;;0.40;0.20;;;10.30;90.00;;;;;;5011350;28;20496;-68
2021/11/23 11:48:32;;;;;;;0.40;0.20;;;10.80;87.60;;;;;;5010643;28;20389;-68
2021/11/23 11:51:06;;;;;;;0.40;0.30;;;9.80;90.40;;;;;;4993326;28;20471;-68
2021/11/23 11:53:46;;;;;;;0.40;0.20;;;10.40;90.60;;;;;;5010552;28;20405;-68
2021/11/23 11:56:16;;;;;;;0.40;0.20;;;10.60;85.80;;;;;;5011202;28;20397;-68
2021/11/23 11:58:52;;;;;;;0.40;0.25;;;10.80;86.00;;;;;;5010484;28;20384;-68
2021/11/23 12:01:25;;;;;;;0.40;0.25;;;11.00;88.70;;;;;;5011107;28;20392;-68
2021/11/23 12:04:02;;;;;;;0.50;0.40;;;11.30;87.50;;;;;;5011135;28;20468;-68
2021/11/23 12:06:53;;;;;;;0.40;0.30;;;11.40;84.50;;;;;;5010984;28;20416;-68
2021/11/23 12:09:28;;;;;;;0.40;0.30;;;10.60;85.10;;;;;;5010695;28;20400;-68
2021/11/23 12:11:58;;;;;;;0.40;0.20;;;10.00;88.30;;;;;;5010476;28;20384;-68
2021/11/23 12:14:29;;;;;;;0.40;0.30;;;10.80;87.50;;;;;;5013215;28;20381;-68
2021/11/23 12:17:08;;;;;;;0.70;0.60;;;10.60;85.40;;;;;;5014384;28;20385;-68
2021/11/23 12:19:51;;;;;;;0.40;0.30;;;11.20;86.90;;;;;;5014737;28;20393;-68
2021/11/23 12:22:25;;;;;;;0.40;0.20;;;11.00;86.20;;;;;;4997293;28;20801;-68
2021/11/23 12:25:03;;;;;;;0.40;0.30;;;10.10;90.20;;;;;;5014029;28;20454;-68
2021/11/23 12:27:38;;;;;;;0.40;0.30;;;9.50;92.40;;;;;;5014640;28;20380;-67
2021/11/23 12:30:05;;;;;;;0.40;0.30;;;9.10;93.60;;;;;;5014050;28;20496;-68
2021/11/23 12:32:34;;;;;;;0.40;0.20;;;8.70;94.50;;;;;;5014655;28;20467;-67
2021/11/23 12:35:01;;;;;;;0.40;0.20;;;8.70;93.20;;;;;;5013773;28;20940;-68
2021/11/23 12:37:30;;;;;;;0.40;0.20;;;8.50;93.70;;;;;;4996788;28;20749;-68
2021/11/23 12:39:58;;;;;;;0.80;0.80;;;8.20;95.10;;;;;;5013762;28;20385;-68
2021/11/23 12:42:25;;;;;;;0.40;0.30;;;8.30;95.80;;;;;;5014325;28;20385;-67
2021/11/23 12:44:50;;;;;;;0.40;0.20;;;8.10;97.20;;;;;;5014218;28;20408;-67
2021/11/23 12:47:20;;;;;;;0.40;0.20;;;8.10;98.00;;;;;;5013703;28;20963;-68
2021/11/23 12:50:01;;;;;;;0.40;0.20;;;8.10;97.80;;;;;;5004742;28;20422;-67
2021/11/23 12:52:28;;;;;;;0.40;0.20;;;8.00;98.40;;;;;;4994530;28;20486;-68
2021/11/23 12:54:55;;;;;;;0.50;0.50;;;7.90;99.10;;;;;;4976832;28;20399;-67
2021/11/23 12:57:22;;;;;;;0.50;0.50;;;7.90;98.50;;;;;;4975337;28;20660;-68